createdAt,value
2023-01-13T00:01:18.443Z,5.05
2023-01-13T00:04:21.308Z,5.45
2023-01-13T00:07:25.423Z,3.92
2023-01-13T00:10:28.216Z,4.28
2023-01-13T00:13:33.528Z,6.13
2023-01-13T00:16:36.374Z,4.50
2023-01-13T00:19:39.227Z,5.65
2023-01-13T00:22:43.575Z,10.63
2023-01-13T00:25:46.356Z,5.95
2023-01-13T00:28:49.646Z,9.43
2023-01-13T00:31:52.444Z,15.77
2023-01-13T00:34:55.263Z,7.35
2023-01-13T00:37:59.426Z,3.47
2023-01-13T00:41:04.245Z,4.80
2023-01-13T00:44:06.121Z,3.83
2023-01-13T00:47:08.888Z,4.63
2023-01-13T00:50:12.365Z,4.00
2023-01-13T00:53:17.051Z,5.18
2023-01-13T00:56:38.537Z,5.25
2023-01-13T00:59:42.435Z,4.25
2023-01-13T01:02:45.263Z,4.32
2023-01-13T01:05:48.232Z,5.35
2023-01-13T01:08:52.916Z,5.80
2023-01-13T01:11:55.711Z,5.47
2023-01-13T01:14:58.703Z,3.95
2023-01-13T01:18:01.479Z,3.45
2023-01-13T01:21:05.260Z,3.72
2023-01-13T01:24:10.832Z,2.92
2023-01-13T01:27:13.663Z,3.78
2023-01-13T01:30:16.692Z,3.67
2023-01-13T01:33:19.479Z,3.05
2023-01-13T01:36:26.113Z,5.05
2023-01-13T01:39:30.257Z,2.58
2023-01-13T01:42:50.395Z,2.65
2023-01-13T01:45:53.515Z,4.00
2023-01-13T01:49:00.851Z,3.97
2023-01-13T01:52:07.922Z,3.25
2023-01-13T01:55:17.627Z,2.63
2023-01-13T01:58:28.056Z,3.03
2023-01-13T02:01:31.567Z,3.22
2023-01-13T02:04:37.369Z,4.70
2023-01-13T02:07:43.016Z,3.95
2023-01-13T02:10:51.850Z,3.85
2023-01-13T02:13:54.975Z,3.03
2023-01-13T02:17:25.106Z,3.35
2023-01-13T02:20:51.041Z,3.80
2023-01-13T02:24:36.041Z,4.70
2023-01-13T02:27:58.382Z,1.92
2023-01-13T02:31:25.423Z,3.30
2023-01-13T02:34:37.317Z,3.38
2023-01-13T02:37:43.355Z,5.25
2023-01-13T02:40:55.709Z,3.38
2023-01-13T02:44:06.653Z,2.55
2023-01-13T02:47:17.088Z,2.15
2023-01-13T02:50:24.180Z,2.60
2023-01-13T02:53:34.349Z,3.28
2023-01-13T02:56:42.679Z,3.47
2023-01-13T02:59:45.628Z,2.53
2023-01-13T03:02:50.674Z,2.15
2023-01-13T03:05:57.610Z,2.53
2023-01-13T03:09:07.809Z,2.67
2023-01-13T03:12:19.877Z,2.60
2023-01-13T03:15:30.070Z,3.40
2023-01-13T03:18:45.090Z,2.50
2023-01-13T03:21:56.739Z,2.33
2023-01-13T03:25:09.065Z,2.22
2023-01-13T03:28:21.672Z,2.42
2023-01-13T03:31:29.229Z,3.75
2023-01-13T03:34:37.606Z,2.33
2023-01-13T03:37:45.222Z,3.92
2023-01-13T03:40:53.519Z,1.63
2023-01-13T03:44:21.322Z,2.70
2023-01-13T03:47:30.675Z,2.22
2023-01-13T03:50:39.897Z,1.67
2023-01-13T03:53:49.352Z,2.03
2023-01-13T03:56:57.099Z,1.92
2023-01-13T04:00:04.002Z,1.98
2023-01-13T04:03:21.882Z,1.98
2023-01-13T04:06:35.976Z,1.60
2023-01-13T04:09:46.802Z,1.90
2023-01-13T04:13:04.110Z,3.22
2023-01-13T04:16:09.215Z,2.33
2023-01-13T04:19:12.100Z,2.10
2023-01-13T04:22:16.315Z,2.78
2023-01-13T04:25:19.143Z,3.42
2023-01-13T04:28:22.751Z,2.10
2023-01-13T04:31:25.580Z,2.72
2023-01-13T04:34:28.616Z,1.58
2023-01-13T04:37:32.923Z,2.17
2023-01-13T04:40:35.765Z,3.47
2023-01-13T04:43:38.615Z,1.65
2023-01-13T04:46:41.440Z,3.03
2023-01-13T04:49:44.274Z,2.50
2023-01-13T04:52:49.485Z,2.28
2023-01-13T04:55:52.409Z,1.30
2023-01-13T04:58:55.289Z,2.00
2023-01-13T05:01:58.188Z,2.13
2023-01-13T05:05:01.319Z,1.67
2023-01-13T05:08:05.771Z,1.67
2023-01-13T05:11:22.470Z,1.77
2023-01-13T05:14:42.652Z,2.75
2023-01-13T05:17:45.615Z,2.95
2023-01-13T05:20:48.468Z,1.90
2023-01-13T05:24:09.966Z,1.90
2023-01-13T05:27:12.810Z,1.33
2023-01-13T05:30:16.813Z,1.30
2023-01-13T05:33:21.378Z,1.55
2023-01-13T05:36:24.203Z,3.17
2023-01-13T05:39:49.419Z,1.60
2023-01-13T05:43:19.977Z,1.73
2023-01-13T05:46:22.884Z,2.08
2023-01-13T05:49:26.162Z,2.13
2023-01-13T05:52:29.036Z,1.65
2023-01-13T05:55:33.380Z,2.33
2023-01-13T05:58:36.550Z,1.98
2023-01-13T06:01:39.336Z,1.40
2023-01-13T06:04:42.186Z,1.60
2023-01-13T06:07:45.121Z,1.70
2023-01-13T06:10:49.275Z,1.98
2023-01-13T06:13:52.087Z,1.55
2023-01-13T06:16:54.884Z,2.10
2023-01-13T06:19:57.786Z,1.15
2023-01-13T06:23:02.055Z,3.03
2023-01-13T06:26:13.218Z,1.25
2023-01-13T06:29:16.840Z,1.25
2023-01-13T06:32:23.043Z,1.30
2023-01-13T06:35:30.939Z,1.48
2023-01-13T06:38:38.416Z,1.27
2023-01-13T06:41:59.983Z,1.75
2023-01-13T06:45:02.969Z,1.42
2023-01-13T06:48:06.596Z,1.55
2023-01-13T06:51:09.498Z,1.80
2023-01-13T06:54:12.368Z,1.20
2023-01-13T06:57:16.529Z,2.97
2023-01-13T07:00:20.282Z,1.60
2023-01-13T07:03:23.045Z,2.45
2023-01-13T07:06:25.891Z,1.30
2023-01-13T07:09:28.788Z,1.35
2023-01-13T07:12:52.940Z,1.13
2023-01-13T07:15:56.274Z,1.55
2023-01-13T07:18:59.155Z,2.10
2023-01-13T07:22:02.619Z,1.45
2023-01-13T07:25:06.233Z,4.28
2023-01-13T07:28:10.714Z,11.15
2023-01-13T07:31:18.983Z,3.42
2023-01-13T07:34:21.995Z,2.28
2023-01-13T07:37:24.832Z,1.38
2023-01-13T07:40:27.730Z,1.70
2023-01-13T07:43:33.569Z,2.35
2023-01-13T07:46:36.409Z,2.58
2023-01-13T07:49:39.219Z,2.67
2023-01-13T07:52:42.109Z,3.33
2023-01-13T07:55:45.636Z,1.90
2023-01-13T07:58:52.925Z,1.65
2023-01-13T08:01:56.021Z,2.85
2023-01-13T08:04:58.950Z,2.65
2023-01-13T08:08:02.398Z,3.90
2023-01-13T08:11:07.768Z,3.92
2023-01-13T08:14:11.958Z,3.58
2023-01-13T08:17:15.004Z,2.28
2023-01-13T08:20:18.418Z,1.63
2023-01-13T08:23:21.441Z,3.92
2023-01-13T08:26:24.717Z,3.28
2023-01-13T08:29:29.009Z,1.95
2023-01-13T08:32:32.060Z,2.10
2023-01-13T08:35:35.079Z,6.63
2023-01-13T08:38:38.812Z,3.10
2023-01-13T08:41:56.907Z,3.38
2023-01-13T08:45:01.331Z,5.45
2023-01-13T08:48:05.026Z,1.77
2023-01-13T08:51:10.489Z,1.77
2023-01-13T08:54:14.023Z,1.92
2023-01-13T08:57:19.453Z,3.38
2023-01-13T09:00:24.206Z,3.13
2023-01-13T09:03:27.152Z,2.05
2023-01-13T09:06:30.050Z,2.92
2023-01-13T09:09:33.000Z,5.35
2023-01-13T09:12:53.591Z,5.90
2023-01-13T09:15:57.833Z,10.90
2023-01-13T09:19:00.767Z,6.38
2023-01-13T09:22:04.061Z,15.60
2023-01-13T09:25:07.564Z,5.05
2023-01-13T09:28:10.451Z,4.65
2023-01-13T09:31:15.003Z,6.95
2023-01-13T09:34:37.487Z,5.63
2023-01-13T09:37:41.944Z,8.32
2023-01-13T09:40:44.847Z,7.72
2023-01-13T09:43:54.877Z,13.93
2023-01-13T09:47:04.163Z,9.45
2023-01-13T09:50:21.118Z,7.97
2023-01-13T09:53:29.748Z,9.05
2023-01-13T09:56:32.547Z,6.50
2023-01-13T09:59:36.865Z,5.55
2023-01-13T10:03:05.466Z,6.07
2023-01-13T10:06:14.646Z,4.13
2023-01-13T10:09:23.898Z,3.45
2023-01-13T10:12:45.511Z,5.20
2023-01-13T10:16:18.737Z,4.55
2023-01-13T10:19:29.262Z,3.97
2023-01-13T10:22:52.942Z,5.05
2023-01-13T10:26:04.374Z,6.15
2023-01-13T10:29:20.648Z,6.03
2023-01-13T10:32:23.541Z,8.27
2023-01-13T10:35:54.465Z,4.90
2023-01-13T10:39:08.863Z,3.30
2023-01-13T10:42:15.357Z,5.65
2023-01-13T10:45:26.044Z,3.67
2023-01-13T10:48:38.477Z,3.45
2023-01-13T10:51:46.047Z,3.60
2023-01-13T10:54:53.152Z,3.13
2023-01-13T10:57:56.030Z,3.83
2023-01-13T11:01:05.310Z,1.13
2023-01-13T11:04:28.345Z,6.68
2023-01-13T11:07:35.144Z,3.63
2023-01-13T11:10:47.046Z,3.92
2023-01-13T11:14:08.419Z,1.08
2023-01-13T11:17:32.217Z,3.08
2023-01-13T11:20:41.145Z,1.70
2023-01-13T11:23:51.293Z,4.68
2023-01-13T11:26:59.749Z,2.45
2023-01-13T11:30:11.616Z,3.08
2023-01-13T11:33:38.158Z,2.10
2023-01-13T11:36:46.190Z,4.03
2023-01-13T11:39:56.310Z,4.95
2023-01-13T11:43:06.085Z,5.82
2023-01-13T11:46:11.283Z,2.15
2023-01-13T11:49:23.672Z,2.45
2023-01-13T11:52:43.252Z,3.25
2023-01-13T11:55:56.855Z,4.82
2023-01-13T11:59:38.795Z,4.07
2023-01-13T12:02:59.628Z,3.03
2023-01-13T12:06:12.343Z,2.78
2023-01-13T12:09:34.511Z,1.20
2023-01-13T12:12:50.777Z,5.00
2023-01-13T12:16:10.964Z,1.45
2023-01-13T12:19:25.092Z,2.45
2023-01-13T12:22:34.252Z,2.58
2023-01-13T12:25:45.103Z,3.35
2023-01-13T12:28:54.520Z,2.55
2023-01-13T12:31:58.310Z,1.75
2023-01-13T12:35:21.252Z,1.80
2023-01-13T12:38:34.508Z,2.08
2023-01-13T12:41:59.505Z,1.90
2023-01-13T12:45:22.839Z,1.63
2023-01-13T12:48:49.226Z,2.35
2023-01-13T12:52:15.309Z,1.85
2023-01-13T12:55:20.785Z,1.13
2023-01-13T12:58:28.431Z,1.23
2023-01-13T13:01:37.451Z,1.42
2023-01-13T13:04:44.818Z,1.35
2023-01-13T13:07:50.583Z,3.00
2023-01-13T13:11:02.902Z,1.30
2023-01-13T13:14:06.202Z,1.55
2023-01-13T13:17:44.811Z,1.25
2023-01-13T13:21:06.008Z,0.75
2023-01-13T13:24:12.134Z,2.20
2023-01-13T13:27:19.173Z,2.67
2023-01-13T13:30:29.058Z,1.63
2023-01-13T13:33:48.913Z,1.80
2023-01-13T13:37:03.423Z,1.85
2023-01-13T13:40:29.078Z,1.27
2023-01-13T13:43:56.738Z,4.03
2023-01-13T13:47:02.575Z,2.35
2023-01-13T13:50:14.452Z,2.00
2023-01-13T13:53:20.425Z,1.40
2023-01-13T13:56:27.242Z,2.75
2023-01-13T13:59:31.034Z,1.25
2023-01-13T14:02:38.534Z,1.80
2023-01-13T14:05:54.760Z,0.82
2023-01-13T14:08:57.537Z,1.45
2023-01-13T14:12:02.512Z,2.30
2023-01-13T14:15:06.443Z,3.20
2023-01-13T14:18:14.632Z,2.85
2023-01-13T14:21:22.253Z,1.63
2023-01-13T14:24:25.183Z,1.73
2023-01-13T14:27:30.350Z,1.20
2023-01-13T14:30:34.758Z,2.78
2023-01-13T14:33:40.023Z,1.85
2023-01-13T14:36:47.860Z,1.63
2023-01-13T14:39:50.717Z,1.30
2023-01-13T14:42:59.831Z,0.80
2023-01-13T14:46:03.558Z,2.88
2023-01-13T14:49:06.591Z,1.33
2023-01-13T14:52:15.970Z,1.40
2023-01-13T14:55:29.918Z,1.00
2023-01-13T14:58:32.842Z,1.65
2023-01-13T15:01:39.337Z,2.95
2023-01-13T15:04:42.363Z,2.42
2023-01-13T15:07:52.483Z,0.90
2023-01-13T15:10:59.824Z,1.77
2023-01-13T15:14:03.216Z,1.73
2023-01-13T15:17:16.589Z,1.45
2023-01-13T15:20:21.902Z,1.27
2023-01-13T15:23:26.110Z,2.00
2023-01-13T15:26:30.628Z,1.00
2023-01-13T15:29:34.218Z,4.53
2023-01-13T15:32:37.115Z,1.52
2023-01-13T15:35:42.345Z,1.60
2023-01-13T15:38:46.584Z,1.65
2023-01-13T15:42:06.847Z,2.15
2023-01-13T15:45:30.964Z,1.15
2023-01-13T15:48:33.913Z,2.05
2023-01-13T15:51:38.907Z,0.77
2023-01-13T15:54:43.114Z,1.92
2023-01-13T15:57:49.064Z,0.85
2023-01-13T16:00:51.904Z,1.50
2023-01-13T16:03:56.508Z,1.52
2023-01-13T16:07:00.508Z,1.40
2023-01-13T16:10:05.233Z,1.60
2023-01-13T16:13:08.123Z,1.25
2023-01-13T16:16:19.575Z,0.70
2023-01-13T16:19:23.480Z,1.20
2023-01-13T16:22:26.718Z,0.90
2023-01-13T16:25:30.976Z,1.95
2023-01-13T16:28:35.779Z,1.55
2023-01-13T16:31:38.770Z,1.95
2023-01-13T16:34:42.408Z,1.13
2023-01-13T16:37:47.160Z,0.98
2023-01-13T16:40:52.252Z,1.40
2023-01-13T16:43:55.357Z,1.13
2023-01-13T16:46:58.159Z,2.25
2023-01-13T16:50:01.013Z,1.13
2023-01-13T16:53:04.221Z,1.42
2023-01-13T16:56:19.558Z,1.75
2023-01-13T16:59:23.498Z,1.92
2023-01-13T17:02:26.261Z,1.15
2023-01-13T17:05:29.664Z,1.48
2023-01-13T17:08:32.463Z,1.52
2023-01-13T17:11:36.667Z,1.73
2023-01-13T17:14:40.052Z,1.30
2023-01-13T17:17:44.144Z,5.05
2023-01-13T17:20:46.906Z,7.57
2023-01-13T17:23:49.878Z,9.40
2023-01-13T17:26:54.155Z,4.55
2023-01-13T17:29:57.034Z,5.60
2023-01-13T17:32:59.914Z,12.50
2023-01-13T17:36:02.870Z,11.25
2023-01-13T17:39:05.894Z,8.48
2023-01-13T17:42:10.403Z,4.05
2023-01-13T17:45:13.342Z,11.50
2023-01-13T17:48:16.177Z,14.25
2023-01-13T17:51:20.242Z,8.18
2023-01-13T17:54:23.377Z,7.47
2023-01-13T17:57:27.566Z,11.55
2023-01-13T18:00:30.736Z,6.68
2023-01-13T18:03:33.593Z,9.15
2023-01-13T18:06:36.462Z,9.95
2023-01-13T18:09:39.300Z,13.32
2023-01-13T18:12:43.509Z,6.13
2023-01-13T18:15:46.375Z,7.43
2023-01-13T18:18:51.693Z,8.23
2023-01-13T18:22:12.296Z,9.07
2023-01-13T18:25:32.607Z,11.65
2023-01-13T18:28:36.817Z,7.70
2023-01-13T18:31:39.699Z,8.45
2023-01-13T18:34:42.881Z,4.40
2023-01-13T18:37:45.727Z,18.23
2023-01-13T18:40:48.590Z,51.15
2023-01-13T18:43:51.785Z,22.98
2023-01-13T18:46:54.667Z,32.88
2023-01-13T18:49:58.414Z,29.23
2023-01-13T18:53:02.172Z,20.73
2023-01-13T18:56:11.620Z,27.08
2023-01-13T18:59:16.037Z,23.30
2023-01-13T19:02:21.367Z,23.02
2023-01-13T19:05:24.310Z,22.17
2023-01-13T19:08:27.109Z,23.42
2023-01-13T19:11:31.348Z,21.90
2023-01-13T19:14:37.389Z,21.88
2023-01-13T19:17:40.382Z,13.45
2023-01-13T19:20:43.241Z,13.70
2023-01-13T19:23:46.154Z,14.35
2023-01-13T19:26:49.696Z,20.60
2023-01-13T19:29:57.516Z,12.48
2023-01-13T19:33:00.539Z,11.68
2023-01-13T19:36:04.697Z,10.30
2023-01-13T19:39:08.270Z,15.10
2023-01-13T19:42:29.688Z,11.32
2023-01-13T19:45:35.466Z,17.25
2023-01-13T19:48:39.282Z,13.07
2023-01-13T19:51:42.116Z,13.20
2023-01-13T19:54:45.753Z,9.88
2023-01-13T19:57:48.601Z,17.08
2023-01-13T20:00:53.780Z,11.30
2023-01-13T20:04:02.767Z,13.43
2023-01-13T20:07:06.609Z,10.82
2023-01-13T20:10:10.434Z,11.73
2023-01-13T20:13:13.779Z,9.55
2023-01-13T20:16:18.186Z,11.20
2023-01-13T20:19:21.173Z,11.63
2023-01-13T20:22:24.126Z,10.63
2023-01-13T20:25:28.811Z,8.40
2023-01-13T20:28:36.998Z,9.65
2023-01-13T20:31:41.256Z,10.98
2023-01-13T20:34:44.614Z,8.25
2023-01-13T20:37:47.469Z,8.88
2023-01-13T20:40:59.286Z,12.65
2023-01-13T20:44:01.174Z,11.63
2023-01-13T20:47:05.943Z,13.43
2023-01-13T20:50:09.566Z,9.52
2023-01-13T20:53:12.406Z,10.85
2023-01-13T20:56:15.326Z,14.20
2023-01-13T20:59:18.361Z,9.38
2023-01-13T21:02:24.243Z,7.85
2023-01-13T21:05:28.258Z,8.85
2023-01-13T21:08:31.100Z,8.55
2023-01-13T21:11:51.570Z,9.15
2023-01-13T21:15:11.590Z,8.77
2023-01-13T21:18:33.507Z,7.85
2023-01-13T21:21:36.337Z,11.18
2023-01-13T21:24:39.213Z,10.52
2023-01-13T21:27:43.960Z,7.80
2023-01-13T21:30:47.854Z,7.22
2023-01-13T21:33:55.026Z,7.95
2023-01-13T21:36:57.977Z,9.90
2023-01-13T21:40:01.473Z,12.95
2023-01-13T21:43:21.683Z,8.20
2023-01-13T21:46:42.708Z,8.45
2023-01-13T21:49:47.213Z,8.52
2023-01-13T21:52:52.321Z,6.90
2023-01-13T21:55:55.203Z,7.20
2023-01-13T21:58:58.065Z,7.13
2023-01-13T22:02:23.820Z,6.75
2023-01-13T22:05:29.061Z,10.00
2023-01-13T22:08:35.600Z,8.48
2023-01-13T22:11:38.381Z,7.63
2023-01-13T22:14:41.726Z,7.68
2023-01-13T22:17:45.656Z,6.40
2023-01-13T22:20:50.533Z,7.85
2023-01-13T22:23:53.342Z,8.23
2023-01-13T22:26:56.145Z,7.50
2023-01-13T22:29:59.188Z,8.35
2023-01-13T22:33:02.202Z,5.68
2023-01-13T22:36:07.564Z,7.47
2023-01-13T22:39:10.413Z,5.30
2023-01-13T22:42:13.236Z,6.55
2023-01-13T22:45:16.215Z,10.27
2023-01-13T22:48:19.078Z,8.63
2023-01-13T22:51:23.819Z,8.25
2023-01-13T22:54:26.630Z,5.32
2023-01-13T22:57:36.125Z,6.35
2023-01-13T23:00:46.789Z,7.13
2023-01-13T23:03:49.674Z,8.18
2023-01-13T23:06:53.998Z,6.15
2023-01-13T23:09:56.836Z,5.75
2023-01-13T23:12:59.754Z,4.97
2023-01-13T23:16:04.394Z,6.28
2023-01-13T23:19:08.462Z,6.45
2023-01-13T23:22:13.576Z,6.90
2023-01-13T23:25:16.532Z,6.75
2023-01-13T23:28:20.616Z,6.28
2023-01-13T23:31:23.502Z,7.78
2023-01-13T23:34:26.445Z,7.07
2023-01-13T23:37:30.589Z,5.93
2023-01-13T23:40:35.138Z,6.28
2023-01-13T23:43:37.973Z,5.72
2023-01-13T23:46:40.823Z,5.50
2023-01-13T23:49:43.674Z,4.95
2023-01-13T23:52:48.337Z,4.50
2023-01-13T23:55:56.936Z,6.72
2023-01-13T23:59:00.082Z,5.35
